sensor_id;sensor_type;location;lat;lon;timestamp;temperature;humidity
40291;DHT22;26000;48.304;13.626;2022-10-23T00:00:32;10.70;99.90
40291;DHT22;26000;48.304;13.626;2022-10-23T00:02:58;10.60;99.90
40291;DHT22;26000;48.304;13.626;2022-10-23T00:05:24;10.70;99.90
40291;DHT22;26000;48.304;13.626;2022-10-23T00:07:52;10.70;99.90
40291;DHT22;26000;48.304;13.626;2022-10-23T00:10:18;10.80;99.90
40291;DHT22;26000;48.304;13.626;2022-10-23T00:12:45;10.80;99.90
40291;DHT22;26000;48.304;13.626;2022-10-23T00:15:11;10.80;99.90
40291;DHT22;26000;48.304;13.626;2022-10-23T00:17:37;10.90;99.90
40291;DHT22;26000;48.304;13.626;2022-10-23T00:20:04;10.90;99.90
40291;DHT22;26000;48.304;13.626;2022-10-23T00:22:30;11.10;99.90
40291;DHT22;26000;48.304;13.626;2022-10-23T00:24:55;11.00;99.90
40291;DHT22;26000;48.304;13.626;2022-10-23T00:27:21;11.00;99.90
40291;DHT22;26000;48.304;13.626;2022-10-23T00:29:47;11.10;99.90
40291;DHT22;26000;48.304;13.626;2022-10-23T00:32:12;11.10;99.90
40291;DHT22;26000;48.304;13.626;2022-10-23T00:34:38;11.00;99.90
40291;DHT22;26000;48.304;13.626;2022-10-23T00:37:03;11.10;99.90
40291;DHT22;26000;48.304;13.626;2022-10-23T00:39:29;11.10;99.90
40291;DHT22;26000;48.304;13.626;2022-10-23T00:41:55;11.10;99.90
40291;DHT22;26000;48.304;13.626;2022-10-23T00:46:46;11.20;99.90
40291;DHT22;26000;48.304;13.626;2022-10-23T00:49:12;11.20;99.90
40291;DHT22;26000;48.304;13.626;2022-10-23T00:51:49;11.20;99.90
40291;DHT22;26000;48.304;13.626;2022-10-23T00:54:17;11.30;99.90
40291;DHT22;26000;48.304;13.626;2022-10-23T00:56:45;11.30;99.90
40291;DHT22;26000;48.304;13.626;2022-10-23T00:59:11;11.30;99.90
40291;DHT22;26000;48.304;13.626;2022-10-23T01:01:37;11.40;99.90
40291;DHT22;26000;48.304;13.626;2022-10-23T01:04:04;11.50;99.90
40291;DHT22;26000;48.304;13.626;2022-10-23T01:09:49;11.40;99.90
40291;DHT22;26000;48.304;13.626;2022-10-23T01:15:48;11.40;99.90
40291;DHT22;26000;48.304;13.626;2022-10-23T01:18:20;11.30;99.90
40291;DHT22;26000;48.304;13.626;2022-10-23T01:23:43;11.20;99.90
40291;DHT22;26000;48.304;13.626;2022-10-23T01:26:19;11.30;99.90
40291;DHT22;26000;48.304;13.626;2022-10-23T01:29:08;11.20;99.90
40291;DHT22;26000;48.304;13.626;2022-10-23T01:31:44;11.30;99.90
40291;DHT22;26000;48.304;13.626;2022-10-23T01:34:25;11.30;99.90
40291;DHT22;26000;48.304;13.626;2022-10-23T01:36:53;11.30;99.90
40291;DHT22;26000;48.304;13.626;2022-10-23T01:39:26;11.30;99.90
40291;DHT22;26000;48.304;13.626;2022-10-23T01:41:59;11.20;99.90
40291;DHT22;26000;48.304;13.626;2022-10-23T01:44:46;11.20;99.90
40291;DHT22;26000;48.304;13.626;2022-10-23T01:47:16;11.10;99.90
40291;DHT22;26000;48.304;13.626;2022-10-23T01:49:43;11.00;99.90
40291;DHT22;26000;48.304;13.626;2022-10-23T01:52:12;11.10;99.90
40291;DHT22;26000;48.304;13.626;2022-10-23T01:54:41;11.10;99.90
40291;DHT22;26000;48.304;13.626;2022-10-23T01:57:12;11.10;99.90
40291;DHT22;26000;48.304;13.626;2022-10-23T01:59:43;11.00;99.90
40291;DHT22;26000;48.304;13.626;2022-10-23T02:02:11;11.00;99.90
40291;DHT22;26000;48.304;13.626;2022-10-23T02:04:41;10.90;99.90
40291;DHT22;26000;48.304;13.626;2022-10-23T02:07:08;10.80;99.90
40291;DHT22;26000;48.304;13.626;2022-10-23T02:09:34;10.90;99.90
40291;DHT22;26000;48.304;13.626;2022-10-23T02:12:08;10.90;99.90
40291;DHT22;26000;48.304;13.626;2022-10-23T02:20:28;10.80;99.90
40291;DHT22;26000;48.304;13.626;2022-10-23T02:23:10;10.80;99.90
40291;DHT22;26000;48.304;13.626;2022-10-23T02:25:59;10.80;99.90
40291;DHT22;26000;48.304;13.626;2022-10-23T02:28:31;10.90;99.90
40291;DHT22;26000;48.304;13.626;2022-10-23T02:30:59;10.90;99.90
40291;DHT22;26000;48.304;13.626;2022-10-23T02:33:28;10.90;99.90
40291;DHT22;26000;48.304;13.626;2022-10-23T02:35:55;10.90;99.90
40291;DHT22;26000;48.304;13.626;2022-10-23T02:38:36;10.90;99.90
40291;DHT22;26000;48.304;13.626;2022-10-23T02:49:25;10.90;99.90
40291;DHT22;26000;48.304;13.626;2022-10-23T03:02:42;10.70;99.90
40291;DHT22;26000;48.304;13.626;2022-10-23T03:05:12;10.70;99.90
40291;DHT22;26000;48.304;13.626;2022-10-23T03:07:39;10.80;99.90
40291;DHT22;26000;48.304;13.626;2022-10-23T03:10:07;10.80;99.90
40291;DHT22;26000;48.304;13.626;2022-10-23T03:12:33;10.80;99.90
40291;DHT22;26000;48.304;13.626;2022-10-23T03:14:58;10.80;99.90
40291;DHT22;26000;48.304;13.626;2022-10-23T03:17:24;10.90;99.90
40291;DHT22;26000;48.304;13.626;2022-10-23T03:19:50;10.90;99.90
40291;DHT22;26000;48.304;13.626;2022-10-23T03:22:16;10.90;99.90
40291;DHT22;26000;48.304;13.626;2022-10-23T03:24:41;10.80;99.90
40291;DHT22;26000;48.304;13.626;2022-10-23T03:27:07;10.80;99.90
40291;DHT22;26000;48.304;13.626;2022-10-23T03:29:32;10.80;99.90
40291;DHT22;26000;48.304;13.626;2022-10-23T03:31:58;10.80;99.90
40291;DHT22;26000;48.304;13.626;2022-10-23T03:34:24;10.90;99.90
40291;DHT22;26000;48.304;13.626;2022-10-23T03:36:49;11.00;99.90
40291;DHT22;26000;48.304;13.626;2022-10-23T03:39:15;10.90;99.90
40291;DHT22;26000;48.304;13.626;2022-10-23T03:41:41;11.20;99.90
40291;DHT22;26000;48.304;13.626;2022-10-23T03:44:07;11.10;99.90
40291;DHT22;26000;48.304;13.626;2022-10-23T03:46:32;11.10;99.90
40291;DHT22;26000;48.304;13.626;2022-10-23T03:48:58;11.00;99.90
40291;DHT22;26000;48.304;13.626;2022-10-23T03:51:25;11.10;99.90
40291;DHT22;26000;48.304;13.626;2022-10-23T03:53:51;11.10;99.90
40291;DHT22;26000;48.304;13.626;2022-10-23T03:56:16;11.20;99.90
40291;DHT22;26000;48.304;13.626;2022-10-23T03:58:42;11.10;99.90
40291;DHT22;26000;48.304;13.626;2022-10-23T04:01:08;11.20;99.90
40291;DHT22;26000;48.304;13.626;2022-10-23T04:03:33;11.10;99.90
40291;DHT22;26000;48.304;13.626;2022-10-23T04:05:59;11.10;99.90
40291;DHT22;26000;48.304;13.626;2022-10-23T04:08:25;11.20;99.90
40291;DHT22;26000;48.304;13.626;2022-10-23T04:10:50;11.10;99.90
40291;DHT22;26000;48.304;13.626;2022-10-23T04:13:16;11.10;99.90
40291;DHT22;26000;48.304;13.626;2022-10-23T04:15:47;11.10;99.90
40291;DHT22;26000;48.304;13.626;2022-10-23T04:18:13;11.10;99.90
40291;DHT22;26000;48.304;13.626;2022-10-23T04:20:39;11.10;99.90
40291;DHT22;26000;48.304;13.626;2022-10-23T04:23:04;11.00;99.90
40291;DHT22;26000;48.304;13.626;2022-10-23T04:25:30;11.00;99.90
40291;DHT22;26000;48.304;13.626;2022-10-23T04:27:56;11.10;99.90
40291;DHT22;26000;48.304;13.626;2022-10-23T04:30:21;11.10;99.90
40291;DHT22;26000;48.304;13.626;2022-10-23T04:32:49;11.10;99.90
40291;DHT22;26000;48.304;13.626;2022-10-23T04:35:16;11.10;99.90
40291;DHT22;26000;48.304;13.626;2022-10-23T04:37:42;11.20;99.90
40291;DHT22;26000;48.304;13.626;2022-10-23T04:40:08;11.30;99.90
40291;DHT22;26000;48.304;13.626;2022-10-23T04:42:33;11.20;99.90
40291;DHT22;26000;48.304;13.626;2022-10-23T04:44:59;11.20;99.90
40291;DHT22;26000;48.304;13.626;2022-10-23T04:47:24;11.30;99.90
40291;DHT22;26000;48.304;13.626;2022-10-23T04:49:50;11.20;99.90
40291;DHT22;26000;48.304;13.626;2022-10-23T04:52:16;11.30;99.90
40291;DHT22;26000;48.304;13.626;2022-10-23T04:54:41;11.40;99.90
40291;DHT22;26000;48.304;13.626;2022-10-23T04:57:07;11.40;99.90
40291;DHT22;26000;48.304;13.626;2022-10-23T04:59:33;11.30;99.90
40291;DHT22;26000;48.304;13.626;2022-10-23T05:01:58;11.40;99.90
40291;DHT22;26000;48.304;13.626;2022-10-23T05:04:24;11.40;99.90
40291;DHT22;26000;48.304;13.626;2022-10-23T05:06:49;11.40;99.90
40291;DHT22;26000;48.304;13.626;2022-10-23T05:09:15;11.40;99.90
40291;DHT22;26000;48.304;13.626;2022-10-23T05:11:41;11.50;99.90
40291;DHT22;26000;48.304;13.626;2022-10-23T05:14:06;11.50;99.90
40291;DHT22;26000;48.304;13.626;2022-10-23T05:16:38;11.50;99.90
40291;DHT22;26000;48.304;13.626;2022-10-23T05:19:08;11.50;99.90
40291;DHT22;26000;48.304;13.626;2022-10-23T05:21:34;11.50;99.90
40291;DHT22;26000;48.304;13.626;2022-10-23T05:24:01;11.40;99.90
40291;DHT22;26000;48.304;13.626;2022-10-23T05:26:28;11.40;99.90
40291;DHT22;26000;48.304;13.626;2022-10-23T05:28:55;11.30;99.90
40291;DHT22;26000;48.304;13.626;2022-10-23T05:31:21;11.40;99.90
40291;DHT22;26000;48.304;13.626;2022-10-23T05:33:49;11.30;99.90
40291;DHT22;26000;48.304;13.626;2022-10-23T05:36:15;11.30;99.90
40291;DHT22;26000;48.304;13.626;2022-10-23T05:38:41;11.20;99.90
40291;DHT22;26000;48.304;13.626;2022-10-23T05:41:07;11.20;99.90
40291;DHT22;26000;48.304;13.626;2022-10-23T05:43:32;11.20;99.90
40291;DHT22;26000;48.304;13.626;2022-10-23T05:45:58;11.30;99.90
40291;DHT22;26000;48.304;13.626;2022-10-23T05:48:24;11.30;99.90
40291;DHT22;26000;48.304;13.626;2022-10-23T05:50:50;11.30;99.90
40291;DHT22;26000;48.304;13.626;2022-10-23T05:53:15;11.40;99.90
40291;DHT22;26000;48.304;13.626;2022-10-23T05:55:41;11.40;99.90
40291;DHT22;26000;48.304;13.626;2022-10-23T05:58:06;11.30;99.90
40291;DHT22;26000;48.304;13.626;2022-10-23T06:00:32;11.20;99.90
40291;DHT22;26000;48.304;13.626;2022-10-23T06:02:59;11.20;99.90
40291;DHT22;26000;48.304;13.626;2022-10-23T06:05:24;11.20;99.90
40291;DHT22;26000;48.304;13.626;2022-10-23T06:07:50;11.30;99.90
40291;DHT22;26000;48.304;13.626;2022-10-23T06:10:16;11.30;99.90
40291;DHT22;26000;48.304;13.626;2022-10-23T06:12:41;11.30;99.90
40291;DHT22;26000;48.304;13.626;2022-10-23T06:15:07;11.30;99.90
40291;DHT22;26000;48.304;13.626;2022-10-23T06:17:33;11.30;99.90
40291;DHT22;26000;48.304;13.626;2022-10-23T06:19:58;11.30;99.90
40291;DHT22;26000;48.304;13.626;2022-10-23T06:22:27;11.30;99.90
40291;DHT22;26000;48.304;13.626;2022-10-23T06:24:53;11.30;99.90
40291;DHT22;26000;48.304;13.626;2022-10-23T06:27:19;11.20;99.90
40291;DHT22;26000;48.304;13.626;2022-10-23T06:29:44;11.20;99.90
40291;DHT22;26000;48.304;13.626;2022-10-23T06:32:10;11.20;99.90
40291;DHT22;26000;48.304;13.626;2022-10-23T06:34:36;11.20;99.90
40291;DHT22;26000;48.304;13.626;2022-10-23T06:37:01;11.20;99.90
40291;DHT22;26000;48.304;13.626;2022-10-23T06:39:27;11.20;99.90
40291;DHT22;26000;48.304;13.626;2022-10-23T06:41:52;11.20;99.90
40291;DHT22;26000;48.304;13.626;2022-10-23T06:44:18;11.20;99.90
40291;DHT22;26000;48.304;13.626;2022-10-23T06:46:44;11.20;99.90
40291;DHT22;26000;48.304;13.626;2022-10-23T06:49:13;11.30;99.90
40291;DHT22;26000;48.304;13.626;2022-10-23T06:51:39;11.30;99.90
40291;DHT22;26000;48.304;13.626;2022-10-23T06:54:05;11.30;99.90
40291;DHT22;26000;48.304;13.626;2022-10-23T06:56:30;11.20;99.90
40291;DHT22;26000;48.304;13.626;2022-10-23T06:58:56;11.30;99.90
40291;DHT22;26000;48.304;13.626;2022-10-23T07:01:22;11.20;99.90
40291;DHT22;26000;48.304;13.626;2022-10-23T07:03:48;11.30;99.90
40291;DHT22;26000;48.304;13.626;2022-10-23T07:06:14;11.30;99.90
40291;DHT22;26000;48.304;13.626;2022-10-23T07:08:42;11.30;99.90
40291;DHT22;26000;48.304;13.626;2022-10-23T07:11:10;11.30;99.90
40291;DHT22;26000;48.304;13.626;2022-10-23T07:13:36;11.40;99.90
40291;DHT22;26000;48.304;13.626;2022-10-23T07:16:14;11.40;99.90
40291;DHT22;26000;48.304;13.626;2022-10-23T07:18:41;11.30;99.90
40291;DHT22;26000;48.304;13.626;2022-10-23T07:21:07;11.20;99.90
40291;DHT22;26000;48.304;13.626;2022-10-23T07:23:33;11.20;99.90
40291;DHT22;26000;48.304;13.626;2022-10-23T07:26:07;11.30;99.90
40291;DHT22;26000;48.304;13.626;2022-10-23T07:28:33;11.30;99.90
40291;DHT22;26000;48.304;13.626;2022-10-23T07:30:59;11.30;99.90
40291;DHT22;26000;48.304;13.626;2022-10-23T07:33:25;11.30;99.90
40291;DHT22;26000;48.304;13.626;2022-10-23T07:35:51;11.30;99.90
40291;DHT22;26000;48.304;13.626;2022-10-23T07:38:16;11.50;99.90
40291;DHT22;26000;48.304;13.626;2022-10-23T07:40:43;11.40;99.90
40291;DHT22;26000;48.304;13.626;2022-10-23T07:43:08;11.50;99.90
40291;DHT22;26000;48.304;13.626;2022-10-23T07:45:34;11.50;99.90
40291;DHT22;26000;48.304;13.626;2022-10-23T07:48:00;11.40;99.90
40291;DHT22;26000;48.304;13.626;2022-10-23T07:50:25;11.40;99.90
40291;DHT22;26000;48.304;13.626;2022-10-23T07:52:51;11.60;99.90
40291;DHT22;26000;48.304;13.626;2022-10-23T07:55:17;11.70;99.90
40291;DHT22;26000;48.304;13.626;2022-10-23T07:57:42;11.70;99.90
40291;DHT22;26000;48.304;13.626;2022-10-23T08:00:09;11.70;99.90
40291;DHT22;26000;48.304;13.626;2022-10-23T08:02:35;11.70;99.90
40291;DHT22;26000;48.304;13.626;2022-10-23T08:05:01;11.70;99.90
40291;DHT22;26000;48.304;13.626;2022-10-23T08:07:27;11.80;99.90
40291;DHT22;26000;48.304;13.626;2022-10-23T08:09:53;11.80;99.90
40291;DHT22;26000;48.304;13.626;2022-10-23T08:12:18;11.80;99.90
40291;DHT22;26000;48.304;13.626;2022-10-23T08:14:44;11.90;99.90
40291;DHT22;26000;48.304;13.626;2022-10-23T08:17:10;11.90;99.90
40291;DHT22;26000;48.304;13.626;2022-10-23T08:19:36;11.90;99.90
40291;DHT22;26000;48.304;13.626;2022-10-23T08:22:01;11.90;99.90
40291;DHT22;26000;48.304;13.626;2022-10-23T08:24:28;11.90;99.90
40291;DHT22;26000;48.304;13.626;2022-10-23T08:26:53;12.00;99.90
40291;DHT22;26000;48.304;13.626;2022-10-23T08:29:19;12.00;99.90
40291;DHT22;26000;48.304;13.626;2022-10-23T08:31:45;11.90;99.90
40291;DHT22;26000;48.304;13.626;2022-10-23T08:34:11;11.90;99.90
40291;DHT22;26000;48.304;13.626;2022-10-23T08:36:37;11.90;99.90
40291;DHT22;26000;48.304;13.626;2022-10-23T08:39:04;12.00;99.90
40291;DHT22;26000;48.304;13.626;2022-10-23T08:41:37;12.00;99.90
40291;DHT22;26000;48.304;13.626;2022-10-23T08:52:14;12.00;99.90
40291;DHT22;26000;48.304;13.626;2022-10-23T08:55:01;12.00;99.90
40291;DHT22;26000;48.304;13.626;2022-10-23T08:57:36;12.10;99.90
40291;DHT22;26000;48.304;13.626;2022-10-23T09:00:07;12.10;99.90
40291;DHT22;26000;48.304;13.626;2022-10-23T09:02:45;12.20;99.90
40291;DHT22;26000;48.304;13.626;2022-10-23T09:08:48;12.50;99.90
40291;DHT22;26000;48.304;13.626;2022-10-23T09:19:15;12.70;99.90
40291;DHT22;26000;48.304;13.626;2022-10-23T09:21:44;12.80;99.90
40291;DHT22;26000;48.304;13.626;2022-10-23T09:24:17;13.00;99.90
40291;DHT22;26000;48.304;13.626;2022-10-23T09:26:45;13.10;99.90
40291;DHT22;26000;48.304;13.626;2022-10-23T09:29:35;13.10;99.90
40291;DHT22;26000;48.304;13.626;2022-10-23T09:32:03;13.10;99.90
40291;DHT22;26000;48.304;13.626;2022-10-23T09:34:31;13.10;99.90
40291;DHT22;26000;48.304;13.626;2022-10-23T09:37:20;13.10;99.90
40291;DHT22;26000;48.304;13.626;2022-10-23T09:39:45;13.10;99.90
40291;DHT22;26000;48.304;13.626;2022-10-23T09:42:22;13.20;99.90
40291;DHT22;26000;48.304;13.626;2022-10-23T09:44:50;13.30;99.90
40291;DHT22;26000;48.304;13.626;2022-10-23T09:47:18;13.30;99.90
40291;DHT22;26000;48.304;13.626;2022-10-23T09:49:49;13.30;99.90
40291;DHT22;26000;48.304;13.626;2022-10-23T09:54:53;13.30;99.90
40291;DHT22;26000;48.304;13.626;2022-10-23T09:57:41;13.30;99.90
40291;DHT22;26000;48.304;13.626;2022-10-23T10:02:40;13.60;99.90
40291;DHT22;26000;48.304;13.626;2022-10-23T10:05:29;13.80;99.90
40291;DHT22;26000;48.304;13.626;2022-10-23T10:11:05;14.20;99.90
40291;DHT22;26000;48.304;13.626;2022-10-23T10:16:09;14.30;99.90
40291;DHT22;26000;48.304;13.626;2022-10-23T10:18:42;14.30;99.90
40291;DHT22;26000;48.304;13.626;2022-10-23T10:21:16;14.20;99.90
40291;DHT22;26000;48.304;13.626;2022-10-23T10:29:47;14.40;99.90
40291;DHT22;26000;48.304;13.626;2022-10-23T10:32:38;14.50;99.90
40291;DHT22;26000;48.304;13.626;2022-10-23T10:35:17;14.50;99.90
40291;DHT22;26000;48.304;13.626;2022-10-23T10:40:27;14.80;99.90
40291;DHT22;26000;48.304;13.626;2022-10-23T10:48:50;14.70;99.90
40291;DHT22;26000;48.304;13.626;2022-10-23T10:56:49;15.20;99.90
40291;DHT22;26000;48.304;13.626;2022-10-23T10:59:28;15.30;99.90
40291;DHT22;26000;48.304;13.626;2022-10-23T11:07:22;15.00;99.90
40291;DHT22;26000;48.304;13.626;2022-10-23T11:09:49;15.00;99.90
40291;DHT22;26000;48.304;13.626;2022-10-23T11:12:20;15.00;99.90
40291;DHT22;26000;48.304;13.626;2022-10-23T11:14:48;15.10;99.90
40291;DHT22;26000;48.304;13.626;2022-10-23T11:17:22;15.20;99.90
40291;DHT22;26000;48.304;13.626;2022-10-23T11:22:29;15.40;99.90
40291;DHT22;26000;48.304;13.626;2022-10-23T11:33:51;15.60;99.90
40291;DHT22;26000;48.304;13.626;2022-10-23T11:36:41;15.50;99.90
40291;DHT22;26000;48.304;13.626;2022-10-23T11:39:27;15.40;99.90
40291;DHT22;26000;48.304;13.626;2022-10-23T11:41:55;15.50;99.90
40291;DHT22;26000;48.304;13.626;2022-10-23T11:44:25;15.50;99.90
40291;DHT22;26000;48.304;13.626;2022-10-23T11:49:49;15.60;99.90
40291;DHT22;26000;48.304;13.626;2022-10-23T11:52:22;15.60;99.90
40291;DHT22;26000;48.304;13.626;2022-10-23T11:57:27;15.60;99.90
40291;DHT22;26000;48.304;13.626;2022-10-23T11:59:54;15.70;99.90
40291;DHT22;26000;48.304;13.626;2022-10-23T12:02:37;15.70;99.90
40291;DHT22;26000;48.304;13.626;2022-10-23T12:05:07;15.80;99.90
40291;DHT22;26000;48.304;13.626;2022-10-23T12:07:39;15.80;99.90
40291;DHT22;26000;48.304;13.626;2022-10-23T12:10:34;15.80;99.90
40291;DHT22;26000;48.304;13.626;2022-10-23T12:13:05;15.90;99.90
40291;DHT22;26000;48.304;13.626;2022-10-23T12:15:32;15.90;99.90
40291;DHT22;26000;48.304;13.626;2022-10-23T12:18:28;15.90;99.90
40291;DHT22;26000;48.304;13.626;2022-10-23T12:21:00;16.00;99.90
40291;DHT22;26000;48.304;13.626;2022-10-23T12:32:12;15.90;99.90
40291;DHT22;26000;48.304;13.626;2022-10-23T12:40:11;15.90;99.90
40291;DHT22;26000;48.304;13.626;2022-10-23T12:42:37;15.90;99.90
40291;DHT22;26000;48.304;13.626;2022-10-23T12:45:24;15.90;99.90
40291;DHT22;26000;48.304;13.626;2022-10-23T12:47:51;16.00;99.90
40291;DHT22;26000;48.304;13.626;2022-10-23T12:53:03;15.90;99.90
40291;DHT22;26000;48.304;13.626;2022-10-23T12:55:45;15.80;99.90
40291;DHT22;26000;48.304;13.626;2022-10-23T12:58:20;15.80;99.90
40291;DHT22;26000;48.304;13.626;2022-10-23T13:00:53;15.80;99.90
40291;DHT22;26000;48.304;13.626;2022-10-23T13:03:20;15.80;99.90
40291;DHT22;26000;48.304;13.626;2022-10-23T13:05:48;16.00;99.90
40291;DHT22;26000;48.304;13.626;2022-10-23T13:08:14;16.20;99.90
40291;DHT22;26000;48.304;13.626;2022-10-23T13:10:40;16.20;99.90
40291;DHT22;26000;48.304;13.626;2022-10-23T13:13:06;16.30;99.90
40291;DHT22;26000;48.304;13.626;2022-10-23T13:15:38;16.20;99.90
40291;DHT22;26000;48.304;13.626;2022-10-23T13:18:05;16.20;99.90
40291;DHT22;26000;48.304;13.626;2022-10-23T13:20:36;16.20;99.90
40291;DHT22;26000;48.304;13.626;2022-10-23T13:25:35;16.20;99.90
40291;DHT22;26000;48.304;13.626;2022-10-23T13:28:14;16.30;99.90
40291;DHT22;26000;48.304;13.626;2022-10-23T13:30:43;16.20;99.90
40291;DHT22;26000;48.304;13.626;2022-10-23T13:33:32;16.30;99.90
40291;DHT22;26000;48.304;13.626;2022-10-23T13:36:21;16.30;99.90
40291;DHT22;26000;48.304;13.626;2022-10-23T13:39:10;16.40;99.90
40291;DHT22;26000;48.304;13.626;2022-10-23T13:44:02;16.30;99.90
40291;DHT22;26000;48.304;13.626;2022-10-23T13:46:28;16.30;99.90
40291;DHT22;26000;48.304;13.626;2022-10-23T13:48:53;16.30;99.90
40291;DHT22;26000;48.304;13.626;2022-10-23T13:51:28;16.40;99.90
40291;DHT22;26000;48.304;13.626;2022-10-23T13:53:55;16.40;99.90
40291;DHT22;26000;48.304;13.626;2022-10-23T13:56:22;16.40;99.90
40291;DHT22;26000;48.304;13.626;2022-10-23T13:58:48;16.40;99.90
40291;DHT22;26000;48.304;13.626;2022-10-23T14:01:39;16.40;99.90
40291;DHT22;26000;48.304;13.626;2022-10-23T14:04:05;16.40;99.90
40291;DHT22;26000;48.304;13.626;2022-10-23T14:06:32;16.40;99.90
40291;DHT22;26000;48.304;13.626;2022-10-23T14:08:58;16.40;99.90
40291;DHT22;26000;48.304;13.626;2022-10-23T14:11:24;16.40;99.90
40291;DHT22;26000;48.304;13.626;2022-10-23T14:13:50;16.50;99.90
40291;DHT22;26000;48.304;13.626;2022-10-23T14:16:18;16.60;99.90
40291;DHT22;26000;48.304;13.626;2022-10-23T14:18:48;16.60;99.90
40291;DHT22;26000;48.304;13.626;2022-10-23T14:21:17;16.60;99.90
40291;DHT22;26000;48.304;13.626;2022-10-23T14:23:44;16.70;99.90
40291;DHT22;26000;48.304;13.626;2022-10-23T14:26:15;16.70;99.90
40291;DHT22;26000;48.304;13.626;2022-10-23T14:28:42;16.60;99.90
40291;DHT22;26000;48.304;13.626;2022-10-23T14:31:13;16.60;99.90
40291;DHT22;26000;48.304;13.626;2022-10-23T14:33:40;16.60;99.90
40291;DHT22;26000;48.304;13.626;2022-10-23T14:36:06;16.60;99.90
40291;DHT22;26000;48.304;13.626;2022-10-23T14:38:32;16.50;99.90
40291;DHT22;26000;48.304;13.626;2022-10-23T14:40:58;16.60;99.90
40291;DHT22;26000;48.304;13.626;2022-10-23T14:43:23;16.50;99.90
40291;DHT22;26000;48.304;13.626;2022-10-23T14:45:49;16.50;99.90
40291;DHT22;26000;48.304;13.626;2022-10-23T14:48:15;16.50;99.90
40291;DHT22;26000;48.304;13.626;2022-10-23T14:50:47;16.40;99.90
40291;DHT22;26000;48.304;13.626;2022-10-23T14:53:13;16.40;99.90
40291;DHT22;26000;48.304;13.626;2022-10-23T14:55:39;16.40;99.90
40291;DHT22;26000;48.304;13.626;2022-10-23T14:58:04;16.30;99.90
40291;DHT22;26000;48.304;13.626;2022-10-23T15:00:30;16.20;99.90
40291;DHT22;26000;48.304;13.626;2022-10-23T15:02:56;16.10;99.90
40291;DHT22;26000;48.304;13.626;2022-10-23T15:05:21;16.00;99.90
40291;DHT22;26000;48.304;13.626;2022-10-23T15:07:47;15.90;99.90
40291;DHT22;26000;48.304;13.626;2022-10-23T15:10:13;15.90;99.90
40291;DHT22;26000;48.304;13.626;2022-10-23T15:12:39;15.90;99.90
40291;DHT22;26000;48.304;13.626;2022-10-23T15:15:06;15.80;99.90
40291;DHT22;26000;48.304;13.626;2022-10-23T15:17:32;15.80;99.90
40291;DHT22;26000;48.304;13.626;2022-10-23T15:19:59;15.70;99.90
40291;DHT22;26000;48.304;13.626;2022-10-23T15:22:25;15.70;99.90
40291;DHT22;26000;48.304;13.626;2022-10-23T15:24:51;15.70;99.90
40291;DHT22;26000;48.304;13.626;2022-10-23T15:27:17;15.60;99.90
40291;DHT22;26000;48.304;13.626;2022-10-23T15:29:43;15.60;99.90
40291;DHT22;26000;48.304;13.626;2022-10-23T15:32:10;15.50;99.90
40291;DHT22;26000;48.304;13.626;2022-10-23T15:34:36;15.50;99.90
40291;DHT22;26000;48.304;13.626;2022-10-23T15:37:02;15.50;99.90
40291;DHT22;26000;48.304;13.626;2022-10-23T15:39:30;15.40;99.90
40291;DHT22;26000;48.304;13.626;2022-10-23T15:42:01;15.30;99.90
40291;DHT22;26000;48.304;13.626;2022-10-23T15:44:29;15.30;99.90
40291;DHT22;26000;48.304;13.626;2022-10-23T15:46:56;15.40;99.90
40291;DHT22;26000;48.304;13.626;2022-10-23T15:49:22;15.30;99.90
40291;DHT22;26000;48.304;13.626;2022-10-23T15:51:49;15.20;99.90
40291;DHT22;26000;48.304;13.626;2022-10-23T15:54:16;15.20;99.90
40291;DHT22;26000;48.304;13.626;2022-10-23T15:56:51;15.20;99.90
40291;DHT22;26000;48.304;13.626;2022-10-23T15:59:19;15.30;99.90
40291;DHT22;26000;48.304;13.626;2022-10-23T16:01:46;15.20;99.90
40291;DHT22;26000;48.304;13.626;2022-10-23T16:04:11;15.10;99.90
40291;DHT22;26000;48.304;13.626;2022-10-23T16:06:37;15.20;99.90
40291;DHT22;26000;48.304;13.626;2022-10-23T16:09:03;15.30;99.90
40291;DHT22;26000;48.304;13.626;2022-10-23T16:11:32;15.10;99.90
40291;DHT22;26000;48.304;13.626;2022-10-23T16:13:59;15.10;99.90
40291;DHT22;26000;48.304;13.626;2022-10-23T16:16:26;15.00;99.90
40291;DHT22;26000;48.304;13.626;2022-10-23T16:18:51;15.10;99.90
40291;DHT22;26000;48.304;13.626;2022-10-23T16:21:18;15.10;99.90
40291;DHT22;26000;48.304;13.626;2022-10-23T16:23:44;15.10;99.90
40291;DHT22;26000;48.304;13.626;2022-10-23T16:26:10;15.10;99.90
40291;DHT22;26000;48.304;13.626;2022-10-23T16:28:36;14.90;99.90
40291;DHT22;26000;48.304;13.626;2022-10-23T16:31:06;14.90;99.90
40291;DHT22;26000;48.304;13.626;2022-10-23T16:33:32;15.10;99.90
40291;DHT22;26000;48.304;13.626;2022-10-23T16:36:04;15.10;99.90
40291;DHT22;26000;48.304;13.626;2022-10-23T16:38:30;14.90;99.90
40291;DHT22;26000;48.304;13.626;2022-10-23T16:40:55;14.80;99.90
40291;DHT22;26000;48.304;13.626;2022-10-23T16:43:21;14.70;99.90
40291;DHT22;26000;48.304;13.626;2022-10-23T16:45:47;14.70;99.90
40291;DHT22;26000;48.304;13.626;2022-10-23T16:48:13;14.70;99.90
40291;DHT22;26000;48.304;13.626;2022-10-23T16:50:39;14.70;99.90
40291;DHT22;26000;48.304;13.626;2022-10-23T16:53:05;14.70;99.90
40291;DHT22;26000;48.304;13.626;2022-10-23T16:55:31;14.60;99.90
40291;DHT22;26000;48.304;13.626;2022-10-23T16:57:57;14.60;99.90
40291;DHT22;26000;48.304;13.626;2022-10-23T17:00:25;14.50;99.90
40291;DHT22;26000;48.304;13.626;2022-10-23T17:03:02;14.40;99.90
40291;DHT22;26000;48.304;13.626;2022-10-23T17:05:33;14.50;99.90
40291;DHT22;26000;48.304;13.626;2022-10-23T17:07:59;14.40;99.90
40291;DHT22;26000;48.304;13.626;2022-10-23T17:10:25;14.30;99.90
40291;DHT22;26000;48.304;13.626;2022-10-23T17:12:50;14.40;99.90
40291;DHT22;26000;48.304;13.626;2022-10-23T17:15:17;14.50;99.90
40291;DHT22;26000;48.304;13.626;2022-10-23T17:17:44;14.40;99.90
40291;DHT22;26000;48.304;13.626;2022-10-23T17:20:10;14.40;99.90
40291;DHT22;26000;48.304;13.626;2022-10-23T17:22:36;14.30;99.90
40291;DHT22;26000;48.304;13.626;2022-10-23T17:25:04;14.30;99.90
40291;DHT22;26000;48.304;13.626;2022-10-23T17:27:30;14.20;99.90
40291;DHT22;26000;48.304;13.626;2022-10-23T17:29:55;14.20;99.90
40291;DHT22;26000;48.304;13.626;2022-10-23T17:32:21;14.30;99.90
40291;DHT22;26000;48.304;13.626;2022-10-23T17:34:46;14.20;99.90